Time;durP1;ratioP1;P1;durP2;ratioP2;P2;SDS_P1;SDS_P2;PMS_P1;PMS_P2;Temp;Humidity;BMP_temperature;BMP_pressure;BME280_temperature;BME280_humidity;BME280_pressure;Samples;Min_cycle;Max_cycle;Signal;HPM_P1;HPM_P2
2021/04/14 00:01:09;;;;;;;11.63;6.32;;;2.20;56.30;;;;;;5037010;28;20433;-79
2021/04/14 00:03:35;;;;;;;9.90;5.53;;;2.10;56.60;;;;;;5023803;28;20410;-78
2021/04/14 00:06:01;;;;;;;10.00;5.35;;;2.10;57.90;;;;;;5041299;28;20601;-78
2021/04/14 00:08:30;;;;;;;6.00;4.83;;;2.10;58.20;;;;;;5038260;28;20771;-78
2021/04/14 00:10:57;;;;;;;7.97;4.50;;;2.00;58.10;;;;;;5005860;28;20396;-77
2021/04/14 00:13:30;;;;;;;7.85;4.50;;;2.00;58.10;;;;;;5045651;28;20395;-77
2021/04/14 00:15:58;;;;;;;6.10;4.30;;;2.00;58.40;;;;;;5028826;28;20387;-78
2021/04/14 00:18:24;;;;;;;9.32;5.30;;;2.00;59.50;;;;;;5045584;28;20384;-77
2021/04/14 00:20:51;;;;;;;10.77;5.07;;;2.00;59.50;;;;;;5025478;28;20376;-77
2021/04/14 00:23:19;;;;;;;7.57;4.90;;;2.00;60.80;;;;;;5040656;28;20387;-77
2021/04/14 00:25:47;;;;;;;8.57;5.00;;;1.90;58.60;;;;;;5019225;28;21173;-77
2021/04/14 00:28:16;;;;;;;12.27;6.50;;;1.80;59.70;;;;;;5035062;28;20479;-77
2021/04/14 00:30:43;;;;;;;7.72;5.32;;;1.70;61.20;;;;;;5019203;28;20405;-77
2021/04/14 00:33:09;;;;;;;8.77;5.18;;;1.60;62.30;;;;;;5021925;28;20394;-77
2021/04/14 00:35:35;;;;;;;8.80;5.68;;;1.70;63.80;;;;;;5039444;28;20383;-77
2021/04/14 00:38:01;;;;;;;11.30;5.27;;;2.10;63.90;;;;;;5034829;28;20406;-77
2021/04/14 00:40:39;;;;;;;10.43;5.93;;;2.30;61.10;;;;;;5016961;28;20383;-77
2021/04/14 00:43:13;;;;;;;14.75;6.65;;;2.50;61.50;;;;;;5038652;28;20379;-77
2021/04/14 00:45:39;;;;;;;11.50;6.68;;;2.50;60.20;;;;;;5018292;28;20483;-78
2021/04/14 00:48:06;;;;;;;12.68;7.00;;;2.30;59.90;;;;;;5023295;28;20841;-75
2021/04/14 00:50:33;;;;;;;14.30;7.38;;;2.00;61.10;;;;;;5040290;28;20387;-77
2021/04/14 00:53:00;;;;;;;10.73;5.90;;;1.80;63.80;;;;;;5042832;28;20390;-76
2021/04/14 00:55:27;;;;;;;10.00;6.20;;;1.60;65.70;;;;;;5041300;28;20868;-77
2021/04/14 00:57:53;;;;;;;16.10;6.80;;;1.50;67.00;;;;;;5033460;28;20466;-77
2021/04/14 01:00:49;;;;;;;12.18;6.80;;;1.50;68.80;;;;;;5038148;28;20402;-78
2021/04/14 01:03:32;;;;;;;10.65;6.38;;;1.90;69.50;;;;;;5034251;28;20449;-77
2021/04/14 01:06:00;;;;;;;12.40;6.80;;;1.70;69.10;;;;;;5039590;28;20387;-77
2021/04/14 01:08:25;;;;;;;8.57;5.80;;;1.60;67.90;;;;;;5022178;28;20388;-78
2021/04/14 01:10:52;;;;;;;11.95;6.55;;;1.50;69.00;;;;;;5017641;28;20393;-77
2021/04/14 01:13:19;;;;;;;13.88;6.90;;;1.40;69.30;;;;;;5033059;28;20394;-77
2021/04/14 01:15:46;;;;;;;9.48;6.22;;;1.20;69.70;;;;;;5034889;28;20405;-78
2021/04/14 01:18:16;;;;;;;9.93;6.20;;;1.20;70.70;;;;;;5022636;28;20472;-78
2021/04/14 01:20:42;;;;;;;10.85;5.75;;;1.20;69.10;;;;;;5025891;28;20387;-77
2021/04/14 01:23:08;;;;;;;11.63;6.18;;;1.20;70.70;;;;;;5026808;28;20390;-77
2021/04/14 01:25:38;;;;;;;8.68;5.80;;;1.20;72.20;;;;;;5037907;28;20383;-78
2021/04/14 01:28:11;;;;;;;6.73;5.27;;;1.20;72.30;;;;;;5036911;28;20482;-78
2021/04/14 01:30:37;;;;;;;8.45;5.35;;;1.30;73.30;;;;;;5017652;28;20386;-77
2021/04/14 01:33:03;;;;;;;9.35;5.20;;;1.30;72.90;;;;;;5038479;28;20387;-78
2021/04/14 01:35:29;;;;;;;8.95;4.63;;;1.30;72.60;;;;;;5041763;28;20395;-77
2021/04/14 01:37:55;;;;;;;9.07;5.03;;;1.30;71.50;;;;;;5025755;28;20891;-78
2021/04/14 01:40:23;;;;;;;8.25;5.47;;;1.30;72.40;;;;;;5039065;28;20404;-77
2021/04/14 01:42:49;;;;;;;10.93;5.60;;;1.50;71.90;;;;;;5025090;28;20394;-77
2021/04/14 01:45:19;;;;;;;10.00;5.65;;;1.40;72.80;;;;;;5043135;28;20446;-76
2021/04/14 01:47:44;;;;;;;8.63;5.43;;;1.60;71.40;;;;;;5042160;28;20459;-77
2021/04/14 01:50:10;;;;;;;9.38;5.45;;;1.50;67.20;;;;;;5041490;28;20414;-77
2021/04/14 01:52:36;;;;;;;8.65;5.40;;;1.40;69.10;;;;;;5040364;28;20717;-78
2021/04/14 01:55:03;;;;;;;8.17;4.80;;;1.40;72.60;;;;;;5041706;28;20817;-79
2021/04/14 01:57:29;;;;;;;8.68;4.55;;;1.40;71.90;;;;;;5020638;28;20423;-77
2021/04/14 01:59:54;;;;;;;9.20;5.33;;;1.20;72.30;;;;;;5034623;28;20437;-77
2021/04/14 02:02:20;;;;;;;6.70;4.80;;;1.10;73.60;;;;;;5035359;28;20394;-77
2021/04/14 02:04:46;;;;;;;11.30;5.47;;;1.00;75.50;;;;;;5034592;28;20791;-77
2021/04/14 02:07:12;;;;;;;5.78;4.45;;;1.00;76.90;;;;;;5033216;28;20478;-78
2021/04/14 02:09:37;;;;;;;8.27;5.10;;;1.00;77.70;;;;;;5026034;28;20881;-77
2021/04/14 02:12:07;;;;;;;6.22;5.40;;;0.90;78.00;;;;;;5025213;28;20887;-77
2021/04/14 02:14:33;;;;;;;8.70;5.22;;;0.90;78.20;;;;;;5034067;28;20449;-77
2021/04/14 02:16:59;;;;;;;9.85;5.00;;;0.90;78.70;;;;;;5035156;28;20947;-77
2021/04/14 02:19:25;;;;;;;9.40;5.80;;;1.00;79.20;;;;;;5016474;28;20423;-77
2021/04/14 02:21:51;;;;;;;7.93;5.20;;;1.00;79.40;;;;;;5036009;28;20759;-78
2021/04/14 02:24:16;;;;;;;7.72;4.88;;;1.00;78.70;;;;;;5038717;28;20474;-78
2021/04/14 02:26:42;;;;;;;10.23;5.60;;;1.20;80.40;;;;;;5038662;28;20860;-78
2021/04/14 02:29:07;;;;;;;12.63;5.80;;;1.20;75.90;;;;;;5039628;28;20429;-78
2021/04/14 02:31:33;;;;;;;8.60;5.60;;;1.00;76.60;;;;;;5037357;28;20421;-78
2021/04/14 02:34:06;;;;;;;9.57;5.60;;;0.90;78.40;;;;;;5037583;28;20387;-77
2021/04/14 02:36:33;;;;;;;6.63;5.00;;;0.90;78.20;;;;;;5038210;28;20395;-78
2021/04/14 02:38:59;;;;;;;8.73;4.97;;;1.00;79.60;;;;;;5018558;28;20599;-78
2021/04/14 02:41:24;;;;;;;9.05;5.07;;;0.90;77.70;;;;;;5037700;28;20390;-79
2021/04/14 02:43:52;;;;;;;8.30;5.10;;;0.80;78.20;;;;;;5035973;28;20391;-78
2021/04/14 02:46:18;;;;;;;10.23;6.00;;;0.80;79.60;;;;;;5035593;28;20398;-77
2021/04/14 02:48:44;;;;;;;8.10;5.18;;;0.70;81.20;;;;;;5036546;28;20387;-77
2021/04/14 02:51:10;;;;;;;6.50;5.38;;;0.80;82.30;;;;;;5036593;28;20460;-77
2021/04/14 02:53:36;;;;;;;8.45;4.60;;;0.80;81.80;;;;;;5035644;28;20375;-77
2021/04/14 02:56:02;;;;;;;12.43;5.40;;;0.80;81.50;;;;;;5036278;28;20473;-77
2021/04/14 02:58:28;;;;;;;9.93;5.57;;;0.80;82.20;;;;;;5041975;28;20389;-77
2021/04/14 03:00:53;;;;;;;10.07;5.20;;;0.90;82.80;;;;;;5044108;28;20443;-78
2021/04/14 03:03:19;;;;;;;9.37;6.67;;;0.80;81.70;;;;;;5043854;28;20784;-78
2021/04/14 03:05:45;;;;;;;12.15;6.10;;;0.70;82.70;;;;;;5043234;28;20379;-78
2021/04/14 03:08:10;;;;;;;8.17;5.47;;;0.60;83.10;;;;;;5040059;28;20435;-78
2021/04/14 03:10:36;;;;;;;8.37;5.80;;;0.70;83.70;;;;;;5026948;28;20885;-78
2021/04/14 03:13:04;;;;;;;9.60;5.55;;;0.70;85.10;;;;;;5042380;28;20486;-79
2021/04/14 03:15:33;;;;;;;7.68;5.78;;;0.80;82.70;;;;;;5037039;28;20512;-77
2021/04/14 03:17:59;;;;;;;8.77;5.65;;;0.70;82.70;;;;;;5016493;28;20906;-78
2021/04/14 03:20:25;;;;;;;7.57;5.20;;;0.70;83.70;;;;;;5034180;28;20391;-77
2021/04/14 03:22:52;;;;;;;12.15;6.00;;;0.70;82.10;;;;;;5017100;28;20755;-77
2021/04/14 03:25:20;;;;;;;12.43;5.75;;;0.70;82.50;;;;;;5036600;28;20383;-78
2021/04/14 03:27:46;;;;;;;8.63;6.30;;;0.70;81.80;;;;;;5040369;28;20406;-78
2021/04/14 03:30:12;;;;;;;10.03;5.70;;;0.70;80.80;;;;;;5041554;28;20930;-78
2021/04/14 03:32:38;;;;;;;8.27;4.80;;;0.80;78.10;;;;;;5038695;28;20486;-78
2021/04/14 03:35:05;;;;;;;7.95;5.45;;;0.80;77.40;;;;;;5033430;28;20418;-78
2021/04/14 03:37:31;;;;;;;9.50;6.15;;;0.70;77.80;;;;;;5034498;28;20403;-78
2021/04/14 03:39:56;;;;;;;8.70;5.83;;;0.60;78.90;;;;;;5017541;28;20391;-77
2021/04/14 03:42:22;;;;;;;12.10;6.83;;;0.60;79.10;;;;;;5041029;28;20482;-77
2021/04/14 03:44:52;;;;;;;14.02;8.40;;;0.60;78.80;;;;;;5020344;28;20394;-77
2021/04/14 03:47:19;;;;;;;9.43;6.07;;;0.50;79.30;;;;;;5035959;28;20414;-77
2021/04/14 03:49:45;;;;;;;10.50;5.40;;;0.70;80.80;;;;;;5017286;28;20387;-78
2021/04/14 03:52:11;;;;;;;10.18;5.60;;;0.90;79.00;;;;;;5017759;28;20471;-77
2021/04/14 03:54:36;;;;;;;8.32;5.20;;;0.90;79.30;;;;;;5033466;28;20888;-77
2021/04/14 03:57:02;;;;;;;7.10;5.63;;;1.10;79.50;;;;;;5034549;28;20474;-78
2021/04/14 03:59:28;;;;;;;11.68;7.32;;;0.90;77.20;;;;;;5016202;28;20395;-77
2021/04/14 04:01:54;;;;;;;8.90;6.10;;;0.80;77.50;;;;;;5018105;28;20410;-79
2021/04/14 04:04:21;;;;;;;9.50;6.50;;;0.70;78.90;;;;;;5019664;28;20391;-77
2021/04/14 04:06:46;;;;;;;13.85;6.70;;;0.60;80.30;;;;;;5036587;28;20403;-78
2021/04/14 04:09:12;;;;;;;13.20;6.20;;;0.60;80.70;;;;;;5032645;28;20392;-78
2021/04/14 04:11:38;;;;;;;16.70;6.10;;;0.60;81.70;;;;;;5022317;28;20379;-78
2021/04/14 04:14:03;;;;;;;7.53;6.28;;;0.60;82.30;;;;;;5035884;28;20392;-78
2021/04/14 04:16:29;;;;;;;9.68;6.22;;;0.60;82.80;;;;;;5038470;28;20579;-78
2021/04/14 04:18:55;;;;;;;7.20;5.40;;;0.60;83.80;;;;;;5036231;28;20405;-78
2021/04/14 04:21:21;;;;;;;8.65;5.50;;;0.70;83.60;;;;;;5017097;28;20391;-76
2021/04/14 04:23:47;;;;;;;12.85;6.25;;;0.70;82.70;;;;;;5033082;28;20418;-76
2021/04/14 04:26:12;;;;;;;10.80;7.20;;;0.60;83.00;;;;;;5034815;28;20872;-77
2021/04/14 04:28:38;;;;;;;10.17;6.50;;;0.60;83.30;;;;;;5035759;28;20382;-77
2021/04/14 04:31:03;;;;;;;14.90;7.50;;;0.60;82.90;;;;;;5034201;28;20387;-76
2021/04/14 04:33:29;;;;;;;13.43;6.75;;;0.60;83.50;;;;;;5033515;28;20390;-75
2021/04/14 04:35:55;;;;;;;12.48;7.60;;;0.60;84.00;;;;;;5015464;28;20387;-75
2021/04/14 04:38:21;;;;;;;11.33;6.73;;;0.60;84.80;;;;;;5034023;28;20892;-76
2021/04/14 04:40:47;;;;;;;11.70;6.60;;;0.70;83.70;;;;;;5035928;28;20390;-75
2021/04/14 04:43:13;;;;;;;17.63;8.30;;;0.80;82.40;;;;;;5035110;28;20430;-75
2021/04/14 04:45:39;;;;;;;12.45;6.57;;;0.70;81.40;;;;;;5037629;28;20387;-75
2021/04/14 04:48:05;;;;;;;10.63;7.15;;;0.80;81.70;;;;;;5041256;28;20423;-74
2021/04/14 04:50:33;;;;;;;13.52;7.28;;;0.80;81.20;;;;;;5043074;28;20464;-75
2021/04/14 04:53:12;;;;;;;11.85;7.10;;;1.00;80.40;;;;;;5040045;28;20411;-76
2021/04/14 04:55:40;;;;;;;15.05;7.60;;;1.00;78.80;;;;;;5033477;28;20386;-76
2021/04/14 04:58:06;;;;;;;14.55;8.82;;;1.20;77.20;;;;;;5034140;28;20838;-75
2021/04/14 05:00:31;;;;;;;12.57;8.07;;;1.30;75.10;;;;;;5016308;28;20422;-74
2021/04/14 05:02:57;;;;;;;15.98;8.00;;;1.50;73.80;;;;;;5034939;28;20478;-75
2021/04/14 05:05:29;;;;;;;15.50;8.67;;;1.50;72.30;;;;;;5043424;28;20546;-75
2021/04/14 05:07:54;;;;;;;15.15;8.13;;;1.60;72.30;;;;;;5032280;28;20403;-75
2021/04/14 05:10:20;;;;;;;16.27;7.25;;;1.70;71.80;;;;;;5035616;28;20448;-75
2021/04/14 05:12:53;;;;;;;18.05;7.68;;;1.80;70.00;;;;;;5032671;28;20422;-77
2021/04/14 05:15:28;;;;;;;12.70;7.60;;;2.00;70.30;;;;;;5014236;28;20930;-75
2021/04/14 05:17:53;;;;;;;20.08;8.65;;;2.30;65.40;;;;;;5031921;28;20406;-76
2021/04/14 05:20:20;;;;;;;17.63;8.57;;;2.40;64.00;;;;;;5031814;28;20390;-76
2021/04/14 05:22:46;;;;;;;19.10;9.07;;;2.40;63.70;;;;;;5031292;28;20387;-76
2021/04/14 05:25:16;;;;;;;11.70;7.68;;;2.30;63.00;;;;;;5031846;28;20830;-75
2021/04/14 05:27:43;;;;;;;17.05;7.63;;;2.30;63.50;;;;;;5031291;28;20454;-75
2021/04/14 05:30:10;;;;;;;20.55;8.65;;;2.40;63.90;;;;;;5031618;28;20419;-76
2021/04/14 05:32:35;;;;;;;13.70;7.20;;;2.70;62.00;;;;;;5032113;28;20391;-75
2021/04/14 05:35:01;;;;;;;10.02;7.00;;;2.90;61.00;;;;;;5031497;28;20397;-76
2021/04/14 05:37:27;;;;;;;16.30;7.23;;;3.30;59.00;;;;;;5031586;28;20437;-76
2021/04/14 05:39:54;;;;;;;11.45;7.28;;;3.50;55.10;;;;;;5031494;28;20440;-75
2021/04/14 05:42:20;;;;;;;16.45;7.25;;;3.60;54.20;;;;;;5031550;28;20379;-75
2021/04/14 05:44:46;;;;;;;15.82;7.57;;;3.50;55.00;;;;;;5031639;28;20383;-75
2021/04/14 05:47:12;;;;;;;17.85;7.43;;;3.60;54.90;;;;;;5032875;28;20411;-77
2021/04/14 05:49:37;;;;;;;15.80;7.45;;;3.70;52.30;;;;;;5031786;28;20383;-75
2021/04/14 05:52:03;;;;;;;14.15;7.50;;;3.70;51.20;;;;;;5031419;28;20394;-75
2021/04/14 05:54:29;;;;;;;15.85;7.80;;;3.60;52.50;;;;;;5032595;28;20764;-75
2021/04/14 05:56:54;;;;;;;12.90;7.80;;;3.60;51.90;;;;;;5032588;28;20387;-75
2021/04/14 05:59:20;;;;;;;15.90;7.80;;;3.60;50.30;;;;;;5013382;28;20418;-74
2021/04/14 06:01:46;;;;;;;22.53;8.73;;;3.50;51.10;;;;;;5013348;28;20470;-76
2021/04/14 06:04:12;;;;;;;18.08;8.00;;;3.40;52.30;;;;;;5030836;28;20391;-76
2021/04/14 06:06:38;;;;;;;14.90;8.30;;;3.50;53.30;;;;;;5030642;28;20434;-76
2021/04/14 06:09:05;;;;;;;21.38;8.52;;;3.80;51.00;;;;;;5028672;28;20534;-76
2021/04/14 06:11:31;;;;;;;22.65;9.00;;;4.20;47.50;;;;;;5012733;28;20388;-76
2021/04/14 06:13:57;;;;;;;24.48;8.95;;;4.30;45.10;;;;;;5026100;28;20391;-75
2021/04/14 06:16:23;;;;;;;16.90;9.00;;;4.10;46.00;;;;;;5031513;28;20394;-76
2021/04/14 06:18:49;;;;;;;25.03;9.43;;;4.00;47.60;;;;;;5030985;28;20794;-76
2021/04/14 06:21:16;;;;;;;21.65;9.35;;;4.50;45.40;;;;;;5030990;28;20421;-76
2021/04/14 06:23:43;;;;;;;21.38;8.27;;;4.60;44.80;;;;;;5030781;28;20431;-76
2021/04/14 06:28:36;;;;;;;15.90;8.25;;;4.70;43.30;;;;;;5030670;28;20785;-74
2021/04/14 06:31:03;;;;;;;17.25;8.43;;;4.50;44.40;;;;;;5031180;28;20884;-76
2021/04/14 06:33:28;;;;;;;19.63;9.25;;;4.60;44.70;;;;;;5031271;28;20409;-74
2021/04/14 06:35:55;;;;;;;22.23;10.00;;;4.40;44.40;;;;;;5030053;28;20461;-74
2021/04/14 06:38:25;;;;;;;25.05;9.80;;;4.50;44.20;;;;;;5012707;28;20399;-74
2021/04/14 06:44:11;;;;;;;22.05;8.80;;;4.50;44.00;;;;;;5034971;28;20884;-73
2021/04/14 06:46:38;;;;;;;15.45;8.85;;;4.80;43.30;;;;;;5012907;28;20410;-74
2021/04/14 06:49:17;;;;;;;19.27;9.02;;;5.00;41.10;;;;;;5031977;28;20376;-77
2021/04/14 06:51:50;;;;;;;12.18;8.90;;;5.40;40.80;;;;;;5009791;28;20789;-77
2021/04/14 06:54:25;;;;;;;11.52;7.72;;;5.70;37.40;;;;;;5032383;28;20895;-78
2021/04/14 06:56:56;;;;;;;13.25;9.45;;;6.00;35.10;;;;;;5033078;28;20808;-76
2021/04/14 06:59:23;;;;;;;13.57;8.13;;;6.50;33.60;;;;;;5032239;28;20478;-76
2021/04/14 07:01:59;;;;;;;11.02;7.45;;;6.60;30.60;;;;;;5032285;28;20473;-77
2021/04/14 07:04:32;;;;;;;15.23;7.90;;;7.00;29.70;;;;;;5034564;28;20424;-77
2021/04/14 07:07:00;;;;;;;11.68;7.40;;;7.60;26.30;;;;;;5032400;28;20472;-79
2021/04/14 07:09:34;;;;;;;13.98;7.57;;;7.80;24.50;;;;;;5030418;28;20406;-77
2021/04/14 07:12:01;;;;;;;16.50;8.40;;;7.20;26.10;;;;;;5022181;28;20395;-78
2021/04/14 07:14:28;;;;;;;19.00;8.88;;;6.30;31.10;;;;;;5037593;28;20469;-77
2021/04/14 07:17:09;;;;;;;20.17;8.67;;;6.00;32.80;;;;;;5014286;28;20475;-74
2021/04/14 07:19:57;;;;;;;13.57;8.30;;;5.80;33.30;;;;;;5025232;28;20752;-75
2021/04/14 07:22:34;;;;;;;13.20;8.60;;;5.70;32.70;;;;;;5016236;28;20912;-76
2021/04/14 07:25:46;;;;;;;16.33;9.77;;;5.40;33.50;;;;;;5021575;28;20524;-78
2021/04/14 07:28:20;;;;;;;21.20;10.77;;;5.30;34.60;;;;;;5023156;28;20761;-76
2021/04/14 07:31:00;;;;;;;21.60;11.38;;;5.30;37.00;;;;;;5015184;28;20385;-76
2021/04/14 07:33:35;;;;;;;27.90;13.02;;;5.30;38.60;;;;;;5030900;28;20403;-76
2021/04/14 07:36:24;;;;;;;25.85;13.25;;;5.30;43.50;;;;;;5017134;28;20922;-76
2021/04/14 07:39:10;;;;;;;22.33;12.48;;;5.20;45.40;;;;;;5088784;23;20869;-70
2021/04/14 07:41:54;;;;;;;22.30;12.98;;;5.20;48.10;;;;;;5053142;28;20711;-69
2021/04/14 07:45:02;;;;;;;25.35;13.70;;;5.30;48.80;;;;;;5069889;28;20429;-71
2021/04/14 07:47:30;;;;;;;22.50;13.85;;;5.40;53.50;;;;;;5058773;28;20415;-70
2021/04/14 07:49:57;;;;;;;22.13;13.70;;;5.60;53.10;;;;;;5091825;28;20386;-70
2021/04/14 07:52:31;;;;;;;23.27;14.05;;;5.80;52.00;;;;;;5080648;28;20426;-71
2021/04/14 07:54:57;;;;;;;27.63;13.67;;;6.30;48.50;;;;;;5091157;28;20448;-71
2021/04/14 07:57:28;;;;;;;24.05;13.55;;;6.50;48.40;;;;;;5082074;28;20425;-69
2021/04/14 07:59:54;;;;;;;31.98;13.40;;;6.70;43.80;;;;;;5088101;28;20476;-70
2021/04/14 08:02:32;;;;;;;22.38;13.23;;;6.50;45.10;;;;;;5083375;28;20484;-71
2021/04/14 08:05:30;;;;;;;31.33;15.20;;;6.40;47.70;;;;;;5084937;28;20426;-70
2021/04/14 08:07:56;;;;;;;26.50;14.60;;;6.30;50.90;;;;;;5073174;28;20455;-70
2021/04/14 08:10:29;;;;;;;33.03;14.70;;;6.10;50.10;;;;;;5086047;28;20793;-69
2021/04/14 08:13:03;;;;;;;22.83;14.05;;;6.10;51.90;;;;;;5081606;28;20525;-70
2021/04/14 08:15:36;;;;;;;19.90;12.82;;;6.20;51.30;;;;;;5080764;28;20481;-70
2021/04/14 08:18:11;;;;;;;21.88;12.70;;;6.30;50.40;;;;;;5088333;28;20374;-70
2021/04/14 08:20:39;;;;;;;22.05;11.38;;;6.40;50.00;;;;;;5084843;28;20398;-70
2021/04/14 08:23:06;;;;;;;25.90;13.23;;;6.20;46.90;;;;;;5089857;28;20374;-70
2021/04/14 08:25:34;;;;;;;22.73;13.45;;;5.80;47.80;;;;;;5086758;28;20399;-71
2021/04/14 08:28:01;;;;;;;25.83;14.02;;;5.50;49.60;;;;;;5088228;28;20413;-70
2021/04/14 08:30:27;;;;;;;25.60;14.65;;;5.40;49.80;;;;;;5080737;28;20402;-70
2021/04/14 08:32:52;;;;;;;26.83;15.80;;;5.30;51.50;;;;;;5086806;28;20382;-70
2021/04/14 08:35:30;;;;;;;30.58;16.50;;;5.50;54.30;;;;;;5086395;28;20401;-71
2021/04/14 08:38:11;;;;;;;29.08;16.95;;;5.50;53.80;;;;;;5086496;28;20422;-70
2021/04/14 08:40:46;;;;;;;26.52;16.38;;;5.60;51.70;;;;;;5084589;28;20402;-72
2021/04/14 08:43:19;;;;;;;23.95;15.73;;;5.80;53.70;;;;;;5089575;28;20370;-71
2021/04/14 08:45:46;;;;;;;24.43;14.57;;;6.10;52.40;;;;;;5078932;28;20497;-72
2021/04/14 08:48:27;;;;;;;22.25;14.45;;;6.30;41.50;;;;;;5088363;28;20748;-73
2021/04/14 08:50:56;;;;;;;28.23;17.58;;;6.60;40.40;;;;;;5079620;28;20891;-71
2021/04/14 08:53:28;;;;;;;32.85;17.02;;;7.00;43.80;;;;;;5081752;28;20434;-70
2021/04/14 08:55:54;;;;;;;24.60;16.77;;;7.30;43.90;;;;;;5083984;28;20450;-70
2021/04/14 08:58:21;;;;;;;22.80;15.60;;;7.50;47.30;;;;;;5085166;28;20908;-71
2021/04/14 09:00:47;;;;;;;22.73;15.55;;;7.60;43.20;;;;;;5083632;28;20393;-70
2021/04/14 09:03:18;;;;;;;23.33;16.20;;;7.70;40.60;;;;;;5085673;28;20396;-70
2021/04/14 09:05:45;;;;;;;27.25;16.50;;;7.60;39.50;;;;;;5079482;28;20380;-71
2021/04/14 09:08:17;;;;;;;27.98;17.15;;;7.70;40.60;;;;;;5079285;28;20421;-71
2021/04/14 09:11:09;;;;;;;24.05;16.30;;;7.90;39.90;;;;;;5072812;28;20383;-71
2021/04/14 09:13:49;;;;;;;22.55;13.55;;;7.90;39.60;;;;;;5070253;28;20405;-70
2021/04/14 09:16:57;;;;;;;22.17;14.38;;;8.60;33.90;;;;;;5074968;28;20371;-70
2021/04/14 09:19:23;;;;;;;22.30;12.80;;;9.10;31.40;;;;;;5076178;28;20754;-71
2021/04/14 09:22:04;;;;;;;21.83;13.10;;;9.80;24.50;;;;;;5083931;28;20440;-70
2021/04/14 09:24:47;;;;;;;22.75;13.88;;;9.90;24.20;;;;;;5079286;28;20782;-70
2021/04/14 09:27:34;;;;;;;20.70;14.17;;;9.70;19.80;;;;;;5084369;28;20414;-71
2021/04/14 09:30:09;;;;;;;23.70;15.85;;;9.60;24.60;;;;;;5076962;28;20416;-73
2021/04/14 09:32:46;;;;;;;22.63;13.88;;;9.90;22.30;;;;;;5071097;28;20393;-71
2021/04/14 09:35:27;;;;;;;23.10;13.95;;;10.60;19.10;;;;;;5083998;28;20371;-71
2021/04/14 09:38:09;;;;;;;22.95;14.02;;;10.70;19.90;;;;;;5075950;28;20774;-72
2021/04/14 09:40:37;;;;;;;24.20;14.45;;;11.00;15.90;;;;;;5084474;28;20437;-71
2021/04/14 09:43:27;;;;;;;20.83;13.18;;;11.00;15.40;;;;;;5085682;28;20489;-69
2021/04/14 09:46:08;;;;;;;21.27;12.50;;;10.90;14.10;;;;;;5078928;28;20877;-70
2021/04/14 09:48:52;;;;;;;18.90;12.48;;;10.20;16.30;;;;;;5082416;28;20422;-71
2021/04/14 09:51:25;;;;;;;18.77;11.30;;;9.90;16.70;;;;;;5072749;28;20775;-72
2021/04/14 09:53:54;;;;;;;17.88;12.57;;;9.80;16.70;;;;;;5079479;28;20381;-70
2021/04/14 09:56:23;;;;;;;19.48;12.70;;;9.80;17.50;;;;;;5078312;28;20733;-69
2021/04/14 09:59:11;;;;;;;17.70;11.90;;;9.80;18.20;;;;;;5081183;28;20392;-69
2021/04/14 10:01:40;;;;;;;24.90;12.63;;;9.80;17.40;;;;;;5090981;28;20410;-69
2021/04/14 10:04:18;;;;;;;18.25;12.00;;;9.70;17.20;;;;;;5078449;28;20768;-70
2021/04/14 10:06:45;;;;;;;16.17;12.17;;;9.80;17.10;;;;;;5065600;28;20444;-69
2021/04/14 10:09:20;;;;;;;23.02;13.10;;;10.00;17.50;;;;;;5077137;28;20383;-68
2021/04/14 10:11:46;;;;;;;18.30;12.50;;;10.10;18.20;;;;;;5074649;28;20751;-68
2021/04/14 10:14:21;;;;;;;20.75;13.05;;;9.90;16.10;;;;;;5082016;28;20386;-69
2021/04/14 10:16:49;;;;;;;18.77;12.13;;;10.10;16.70;;;;;;5085036;28;20406;-69
2021/04/14 10:19:31;;;;;;;20.08;12.75;;;10.40;17.10;;;;;;5082241;28;20383;-72
2021/04/14 10:22:04;;;;;;;17.63;11.85;;;10.30;15.90;;;;;;5082860;28;20494;-69
2021/04/14 10:24:29;;;;;;;23.73;12.75;;;10.40;16.00;;;;;;5076670;28;20405;-70
2021/04/14 10:26:56;;;;;;;22.80;13.73;;;10.60;14.10;;;;;;5084938;28;20402;-71
2021/04/14 10:29:33;;;;;;;17.35;12.10;;;10.70;14.20;;;;;;5079401;28;20393;-71
2021/04/14 10:31:59;;;;;;;18.75;12.50;;;10.70;13.80;;;;;;5081021;28;20385;-71
2021/04/14 10:34:36;;;;;;;16.08;12.13;;;10.70;14.20;;;;;;5078669;28;20384;-70
2021/04/14 10:37:20;;;;;;;20.30;12.20;;;10.70;16.30;;;;;;5082276;28;20437;-70
2021/04/14 10:39:46;;;;;;;18.48;11.80;;;10.50;13.70;;;;;;5050268;28;20476;-71
2021/04/14 10:42:25;;;;;;;18.07;12.33;;;10.30;15.00;;;;;;5075273;28;20472;-71
2021/04/14 10:44:54;;;;;;;21.20;13.05;;;9.90;14.80;;;;;;5054410;28;20440;-72
2021/04/14 10:47:26;;;;;;;20.00;11.95;;;10.20;15.30;;;;;;5078687;28;20813;-72
2021/04/14 10:49:59;;;;;;;19.15;11.40;;;10.50;15.20;;;;;;5088372;28;20385;-70
2021/04/14 10:52:28;;;;;;;18.60;11.52;;;10.60;15.50;;;;;;5078210;28;20394;-70
2021/04/14 10:54:57;;;;;;;19.23;12.00;;;10.90;14.90;;;;;;5087324;28;20381;-71
2021/04/14 10:57:38;;;;;;;20.55;12.02;;;11.40;11.40;;;;;;5085695;28;20428;-70
2021/04/14 11:00:12;;;;;;;17.25;12.20;;;11.60;10.50;;;;;;5087287;28;20405;-69
2021/04/14 11:02:41;;;;;;;15.57;11.73;;;12.00;9.80;;;;;;5073502;28;20394;-69
2021/04/14 11:05:09;;;;;;;15.37;11.20;;;12.50;8.60;;;;;;5073644;28;20421;-69
2021/04/14 11:07:36;;;;;;;20.60;12.90;;;12.20;9.20;;;;;;5083902;28;20776;-70
2021/04/14 11:10:07;;;;;;;22.40;12.63;;;12.10;8.70;;;;;;5076128;28;20376;-69
2021/04/14 11:12:33;;;;;;;18.92;11.90;;;12.00;9.10;;;;;;5085774;28;20390;-69
2021/04/14 11:15:13;;;;;;;22.35;12.43;;;11.90;9.30;;;;;;5071558;28;20471;-69
2021/04/14 11:17:38;;;;;;;16.35;11.70;;;12.00;8.60;;;;;;5073426;28;20387;-69
2021/04/14 11:20:11;;;;;;;19.23;12.35;;;11.80;8.90;;;;;;5072442;28;20407;-69
2021/04/14 11:22:46;;;;;;;19.90;12.40;;;11.40;10.00;;;;;;5084818;28;20409;-69
2021/04/14 11:25:24;;;;;;;18.55;12.38;;;11.10;10.80;;;;;;5088481;28;20842;-69
2021/04/14 11:28:11;;;;;;;16.55;12.38;;;11.40;11.40;;;;;;5075025;28;20407;-71
2021/04/14 11:30:51;;;;;;;17.65;11.90;;;11.30;8.40;;;;;;5081414;28;20891;-69
2021/04/14 11:33:18;;;;;;;20.92;12.07;;;11.20;9.80;;;;;;5089956;28;20851;-69
2021/04/14 11:35:48;;;;;;;15.32;11.10;;;11.00;8.60;;;;;;5074231;28;20379;-71
2021/04/14 11:38:56;;;;;;;18.55;10.75;;;11.00;8.70;;;;;;5089855;28;20520;-70
2021/04/14 11:41:35;;;;;;;15.55;10.73;;;11.30;8.50;;;;;;5008945;28;20813;-68
2021/04/14 11:44:15;;;;;;;16.90;11.27;;;11.20;9.00;;;;;;5089332;28;20461;-70
2021/04/14 11:46:42;;;;;;;20.58;11.25;;;10.40;10.40;;;;;;5053113;28;20764;-71
2021/04/14 11:49:11;;;;;;;23.42;12.05;;;9.80;12.00;;;;;;5076824;28;20399;-69
2021/04/14 11:51:45;;;;;;;21.08;11.90;;;9.90;11.50;;;;;;5093343;28;20374;-69
2021/04/14 11:54:28;;;;;;;21.48;12.20;;;10.00;10.90;;;;;;5083017;28;20449;-71
2021/04/14 11:57:03;;;;;;;17.75;12.52;;;10.50;10.60;;;;;;5054003;28;20377;-70
2021/04/14 11:59:31;;;;;;;18.45;10.63;;;11.30;9.40;;;;;;5080604;28;20902;-69
2021/04/14 12:02:01;;;;;;;15.93;10.90;;;11.80;6.50;;;;;;5073794;28;20520;-69
2021/04/14 12:04:28;;;;;;;17.13;10.13;;;11.40;6.60;;;;;;5072929;28;20390;-69
2021/04/14 12:06:53;;;;;;;13.50;8.20;;;10.60;8.10;;;;;;5072690;28;20557;-71
2021/04/14 12:09:19;;;;;;;18.90;11.13;;;10.00;13.40;;;;;;5081120;28;20463;-69
2021/04/14 12:11:45;;;;;;;20.23;11.38;;;8.90;22.60;;;;;;5081254;28;20453;-70
2021/04/14 12:14:11;;;;;;;18.52;11.57;;;8.80;26.40;;;;;;5086095;28;20755;-70
2021/04/14 12:16:37;;;;;;;22.75;13.88;;;8.60;27.30;;;;;;5073386;28;20442;-69
2021/04/14 12:19:03;;;;;;;22.70;14.43;;;8.20;27.80;;;;;;5079741;28;20406;-69
2021/04/14 12:21:30;;;;;;;24.85;14.75;;;8.10;31.00;;;;;;5084898;28;20410;-69
2021/04/14 12:23:56;;;;;;;22.45;14.40;;;8.10;32.90;;;;;;5086075;28;20518;-68
2021/04/14 12:26:22;;;;;;;23.10;13.68;;;7.90;31.30;;;;;;5083627;28;20388;-69
2021/04/14 12:28:50;;;;;;;24.98;13.40;;;8.00;31.40;;;;;;5086905;28;20390;-69
2021/04/14 12:31:15;;;;;;;26.65;14.38;;;8.00;30.40;;;;;;5085702;28;20386;-70
2021/04/14 12:33:41;;;;;;;26.67;16.00;;;8.00;29.80;;;;;;5086518;28;20395;-70
2021/04/14 12:36:06;;;;;;;22.23;13.03;;;8.10;28.90;;;;;;5080848;28;20406;-70
2021/04/14 12:38:32;;;;;;;26.50;15.30;;;8.00;32.70;;;;;;5081679;28;20501;-69
2021/04/14 12:40:59;;;;;;;29.35;15.45;;;7.60;35.50;;;;;;5087777;28;20389;-70
2021/04/14 12:43:25;;;;;;;28.63;16.48;;;7.50;35.90;;;;;;5075780;28;20487;-70
2021/04/14 12:45:51;;;;;;;24.60;15.38;;;7.60;37.20;;;;;;5085600;28;20493;-70
2021/04/14 12:48:21;;;;;;;26.80;14.43;;;7.60;36.10;;;;;;5082323;28;20460;-71
2021/04/14 12:51:15;;;;;;;21.40;15.10;;;7.50;32.90;;;;;;5085068;28;20892;-71
2021/04/14 12:53:49;;;;;;;41.95;17.90;;;7.50;36.20;;;;;;5081002;28;20525;-72
2021/04/14 12:56:28;;;;;;;25.67;15.95;;;7.90;35.40;;;;;;5075444;28;20380;-72
2021/04/14 12:58:56;;;;;;;24.10;14.32;;;8.20;34.00;;;;;;5080519;28;20414;-71
2021/04/14 13:01:23;;;;;;;25.50;17.43;;;8.10;29.90;;;;;;5089907;28;20430;-71
2021/04/14 13:03:58;;;;;;;26.70;17.08;;;8.00;31.10;;;;;;5092378;28;20385;-70